sensor_id;sensor_type;location;lat;lon;timestamp;P1;durP1;ratioP1;P2;durP2;ratioP2
27257;SDS011;62045;49.986;8.672;2023-02-11T00:02:27;4.28;;;2.88;;
27257;SDS011;62045;49.986;8.672;2023-02-11T00:07:31;5.25;;;2.90;;
27257;SDS011;62045;49.986;8.672;2023-02-11T00:12:32;3.88;;;2.65;;
27257;SDS011;62045;49.986;8.672;2023-02-11T00:17:34;3.53;;;2.65;;
27257;SDS011;62045;49.986;8.672;2023-02-11T00:22:35;3.95;;;2.63;;
27257;SDS011;62045;49.986;8.672;2023-02-11T00:27:36;6.50;;;3.08;;
27257;SDS011;62045;49.986;8.672;2023-02-11T00:32:38;4.47;;;2.90;;
27257;SDS011;62045;49.986;8.672;2023-02-11T00:37:39;3.92;;;2.53;;
27257;SDS011;62045;49.986;8.672;2023-02-11T00:42:39;3.92;;;2.65;;
27257;SDS011;62045;49.986;8.672;2023-02-11T00:47:41;4.18;;;2.42;;
27257;SDS011;62045;49.986;8.672;2023-02-11T00:52:42;4.53;;;2.97;;
27257;SDS011;62045;49.986;8.672;2023-02-11T00:57:43;4.45;;;2.92;;
27257;SDS011;62045;49.986;8.672;2023-02-11T01:02:45;4.75;;;2.85;;
27257;SDS011;62045;49.986;8.672;2023-02-11T01:07:46;4.85;;;3.13;;
27257;SDS011;62045;49.986;8.672;2023-02-11T01:12:47;3.45;;;2.40;;
27257;SDS011;62045;49.986;8.672;2023-02-11T01:17:49;4.90;;;2.90;;
27257;SDS011;62045;49.986;8.672;2023-02-11T01:22:49;3.88;;;2.50;;
27257;SDS011;62045;49.986;8.672;2023-02-11T01:27:50;4.55;;;2.70;;
27257;SDS011;62045;49.986;8.672;2023-02-11T01:32:52;4.18;;;2.60;;
27257;SDS011;62045;49.986;8.672;2023-02-11T01:37:53;5.38;;;2.50;;
27257;SDS011;62045;49.986;8.672;2023-02-11T01:42:53;4.47;;;2.75;;
27257;SDS011;62045;49.986;8.672;2023-02-11T01:47:56;3.70;;;2.25;;
27257;SDS011;62045;49.986;8.672;2023-02-11T01:52:56;4.30;;;2.85;;
27257;SDS011;62045;49.986;8.672;2023-02-11T01:57:58;4.03;;;2.65;;
27257;SDS011;62045;49.986;8.672;2023-02-11T02:03:06;4.38;;;2.65;;
27257;SDS011;62045;49.986;8.672;2023-02-11T02:08:10;4.20;;;2.63;;
27257;SDS011;62045;49.986;8.672;2023-02-11T02:13:16;5.60;;;2.80;;
27257;SDS011;62045;49.986;8.672;2023-02-11T02:18:21;5.53;;;2.80;;
27257;SDS011;62045;49.986;8.672;2023-02-11T02:34:50;4.97;;;2.40;;
27257;SDS011;62045;49.986;8.672;2023-02-11T02:39:57;4.40;;;2.58;;
27257;SDS011;62045;49.986;8.672;2023-02-11T02:45:01;4.03;;;2.67;;
27257;SDS011;62045;49.986;8.672;2023-02-11T02:50:03;5.05;;;2.70;;
27257;SDS011;62045;49.986;8.672;2023-02-11T02:55:21;4.93;;;2.78;;
27257;SDS011;62045;49.986;8.672;2023-02-11T03:00:36;3.85;;;2.47;;
27257;SDS011;62045;49.986;8.672;2023-02-11T03:05:47;3.60;;;2.25;;
27257;SDS011;62045;49.986;8.672;2023-02-11T03:10:52;4.03;;;2.55;;
27257;SDS011;62045;49.986;8.672;2023-02-11T03:15:56;4.00;;;2.25;;
27257;SDS011;62045;49.986;8.672;2023-02-11T03:20:59;4.85;;;2.55;;
27257;SDS011;62045;49.986;8.672;2023-02-11T03:26:02;4.50;;;2.45;;
27257;SDS011;62045;49.986;8.672;2023-02-11T03:31:09;3.50;;;2.28;;
27257;SDS011;62045;49.986;8.672;2023-02-11T03:36:18;4.22;;;2.55;;
27257;SDS011;62045;49.986;8.672;2023-02-11T03:41:23;3.60;;;2.20;;
27257;SDS011;62045;49.986;8.672;2023-02-11T03:46:26;4.82;;;2.63;;
27257;SDS011;62045;49.986;8.672;2023-02-11T03:51:31;3.97;;;2.47;;
27257;SDS011;62045;49.986;8.672;2023-02-11T03:56:34;4.27;;;2.47;;
27257;SDS011;62045;49.986;8.672;2023-02-11T04:01:38;3.97;;;2.20;;
27257;SDS011;62045;49.986;8.672;2023-02-11T04:06:40;4.55;;;2.97;;
27257;SDS011;62045;49.986;8.672;2023-02-11T04:11:41;3.40;;;2.20;;
27257;SDS011;62045;49.986;8.672;2023-02-11T04:16:42;3.42;;;2.15;;
27257;SDS011;62045;49.986;8.672;2023-02-11T04:21:44;4.10;;;2.47;;
27257;SDS011;62045;49.986;8.672;2023-02-11T04:26:44;4.05;;;2.53;;
27257;SDS011;62045;49.986;8.672;2023-02-11T04:31:45;3.60;;;2.20;;
27257;SDS011;62045;49.986;8.672;2023-02-11T04:36:48;3.72;;;2.25;;
27257;SDS011;62045;49.986;8.672;2023-02-11T04:41:48;2.95;;;1.95;;
27257;SDS011;62045;49.986;8.672;2023-02-11T04:46:49;3.55;;;2.13;;
27257;SDS011;62045;49.986;8.672;2023-02-11T04:51:51;3.88;;;2.30;;
27257;SDS011;62045;49.986;8.672;2023-02-11T04:56:52;2.83;;;1.92;;
27257;SDS011;62045;49.986;8.672;2023-02-11T05:01:52;3.67;;;2.25;;
27257;SDS011;62045;49.986;8.672;2023-02-11T05:06:54;4.13;;;2.65;;
27257;SDS011;62045;49.986;8.672;2023-02-11T05:11:55;3.35;;;2.13;;
27257;SDS011;62045;49.986;8.672;2023-02-11T05:16:56;3.22;;;1.80;;
27257;SDS011;62045;49.986;8.672;2023-02-11T05:21:58;3.08;;;1.90;;
27257;SDS011;62045;49.986;8.672;2023-02-11T05:26:59;3.67;;;2.00;;
27257;SDS011;62045;49.986;8.672;2023-02-11T05:32:00;4.55;;;2.45;;
27257;SDS011;62045;49.986;8.672;2023-02-11T05:37:02;3.55;;;2.03;;
27257;SDS011;62045;49.986;8.672;2023-02-11T05:42:03;3.08;;;2.00;;
27257;SDS011;62045;49.986;8.672;2023-02-11T05:47:04;3.42;;;2.15;;
27257;SDS011;62045;49.986;8.672;2023-02-11T05:52:07;3.70;;;2.10;;
27257;SDS011;62045;49.986;8.672;2023-02-11T05:57:08;3.00;;;2.00;;
27257;SDS011;62045;49.986;8.672;2023-02-11T06:02:08;2.78;;;1.92;;
27257;SDS011;62045;49.986;8.672;2023-02-11T06:07:11;3.92;;;2.30;;
27257;SDS011;62045;49.986;8.672;2023-02-11T06:12:11;3.63;;;2.33;;
27257;SDS011;62045;49.986;8.672;2023-02-11T06:17:12;3.42;;;2.20;;
27257;SDS011;62045;49.986;8.672;2023-02-11T06:22:14;3.67;;;2.13;;
27257;SDS011;62045;49.986;8.672;2023-02-11T06:27:15;4.68;;;2.30;;
27257;SDS011;62045;49.986;8.672;2023-02-11T06:32:16;4.13;;;2.35;;
27257;SDS011;62045;49.986;8.672;2023-02-11T06:37:18;3.47;;;2.05;;
27257;SDS011;62045;49.986;8.672;2023-02-11T06:42:18;3.50;;;1.90;;
27257;SDS011;62045;49.986;8.672;2023-02-11T06:47:19;3.10;;;1.90;;
27257;SDS011;62045;49.986;8.672;2023-02-11T06:52:21;3.55;;;1.95;;
27257;SDS011;62045;49.986;8.672;2023-02-11T06:57:22;3.67;;;2.20;;
27257;SDS011;62045;49.986;8.672;2023-02-11T07:02:22;3.67;;;2.38;;
27257;SDS011;62045;49.986;8.672;2023-02-11T07:07:24;2.60;;;1.63;;
27257;SDS011;62045;49.986;8.672;2023-02-11T07:12:26;4.10;;;2.13;;
27257;SDS011;62045;49.986;8.672;2023-02-11T07:17:27;2.97;;;1.85;;
27257;SDS011;62045;49.986;8.672;2023-02-11T07:22:29;3.15;;;1.83;;
27257;SDS011;62045;49.986;8.672;2023-02-11T07:27:31;3.30;;;2.13;;
27257;SDS011;62045;49.986;8.672;2023-02-11T07:32:31;3.05;;;1.95;;
27257;SDS011;62045;49.986;8.672;2023-02-11T07:37:34;3.58;;;2.25;;
27257;SDS011;62045;49.986;8.672;2023-02-11T07:42:35;3.30;;;1.90;;
27257;SDS011;62045;49.986;8.672;2023-02-11T07:47:35;3.88;;;2.08;;
27257;SDS011;62045;49.986;8.672;2023-02-11T07:52:38;3.75;;;1.98;;
27257;SDS011;62045;49.986;8.672;2023-02-11T07:57:39;3.75;;;2.10;;
27257;SDS011;62045;49.986;8.672;2023-02-11T08:02:39;3.65;;;2.05;;
27257;SDS011;62045;49.986;8.672;2023-02-11T08:07:41;3.03;;;1.80;;
27257;SDS011;62045;49.986;8.672;2023-02-11T08:12:42;2.60;;;1.63;;
27257;SDS011;62045;49.986;8.672;2023-02-11T08:17:45;2.75;;;1.73;;
27257;SDS011;62045;49.986;8.672;2023-02-11T08:22:47;3.38;;;2.00;;
27257;SDS011;62045;49.986;8.672;2023-02-11T08:27:48;3.33;;;1.88;;
27257;SDS011;62045;49.986;8.672;2023-02-11T08:32:49;3.10;;;1.80;;
27257;SDS011;62045;49.986;8.672;2023-02-11T08:37:51;2.65;;;1.58;;
27257;SDS011;62045;49.986;8.672;2023-02-11T08:42:52;2.88;;;1.80;;
27257;SDS011;62045;49.986;8.672;2023-02-11T08:47:53;2.70;;;1.90;;
27257;SDS011;62045;49.986;8.672;2023-02-11T08:52:55;3.10;;;2.10;;
27257;SDS011;62045;49.986;8.672;2023-02-11T08:57:55;2.80;;;1.80;;
27257;SDS011;62045;49.986;8.672;2023-02-11T09:02:56;2.70;;;1.63;;
27257;SDS011;62045;49.986;8.672;2023-02-11T09:07:58;3.22;;;1.80;;
27257;SDS011;62045;49.986;8.672;2023-02-11T09:12:59;3.53;;;1.92;;
27257;SDS011;62045;49.986;8.672;2023-02-11T09:18:00;3.97;;;2.05;;
27257;SDS011;62045;49.986;8.672;2023-02-11T09:23:02;4.05;;;2.50;;
27257;SDS011;62045;49.986;8.672;2023-02-11T09:28:03;12.70;;;5.57;;
27257;SDS011;62045;49.986;8.672;2023-02-11T09:33:04;38.75;;;14.05;;
27257;SDS011;62045;49.986;8.672;2023-02-11T09:38:06;31.60;;;14.35;;
27257;SDS011;62045;49.986;8.672;2023-02-11T09:43:07;31.17;;;14.73;;
27257;SDS011;62045;49.986;8.672;2023-02-11T09:48:16;25.35;;;14.10;;
27257;SDS011;62045;49.986;8.672;2023-02-11T09:53:21;22.30;;;14.10;;
27257;SDS011;62045;49.986;8.672;2023-02-11T09:58:25;21.30;;;13.73;;
27257;SDS011;62045;49.986;8.672;2023-02-11T10:03:36;19.17;;;12.40;;
27257;SDS011;62045;49.986;8.672;2023-02-11T10:08:50;16.58;;;10.77;;
27257;SDS011;62045;49.986;8.672;2023-02-11T10:14:04;18.35;;;10.80;;
27257;SDS011;62045;49.986;8.672;2023-02-11T10:19:20;13.27;;;8.43;;
27257;SDS011;62045;49.986;8.672;2023-02-11T10:24:39;12.82;;;7.55;;
27257;SDS011;62045;49.986;8.672;2023-02-11T10:29:48;12.35;;;7.72;;
27257;SDS011;62045;49.986;8.672;2023-02-11T10:34:52;12.50;;;7.32;;
27257;SDS011;62045;49.986;8.672;2023-02-11T10:39:59;10.70;;;6.78;;
27257;SDS011;62045;49.986;8.672;2023-02-11T10:45:01;10.30;;;6.13;;
27257;SDS011;62045;49.986;8.672;2023-02-11T10:50:11;8.90;;;5.95;;
27257;SDS011;62045;49.986;8.672;2023-02-11T10:55:20;9.60;;;5.63;;
27257;SDS011;62045;49.986;8.672;2023-02-11T11:00:27;8.50;;;5.20;;
27257;SDS011;62045;49.986;8.672;2023-02-11T11:05:34;8.88;;;5.13;;
27257;SDS011;62045;49.986;8.672;2023-02-11T11:10:39;6.40;;;4.82;;
27257;SDS011;62045;49.986;8.672;2023-02-11T11:15:40;9.15;;;4.60;;
27257;SDS011;62045;49.986;8.672;2023-02-11T11:20:43;12.55;;;4.30;;
27257;SDS011;62045;49.986;8.672;2023-02-11T11:26:00;6.43;;;3.80;;
27257;SDS011;62045;49.986;8.672;2023-02-11T11:31:04;11.30;;;4.50;;
27257;SDS011;62045;49.986;8.672;2023-02-11T11:36:14;7.40;;;4.43;;
27257;SDS011;62045;49.986;8.672;2023-02-11T11:41:22;7.13;;;3.78;;
27257;SDS011;62045;49.986;8.672;2023-02-11T11:46:26;5.63;;;3.67;;
27257;SDS011;62045;49.986;8.672;2023-02-11T11:51:28;5.25;;;3.50;;
27257;SDS011;62045;49.986;8.672;2023-02-11T11:56:33;6.80;;;4.03;;
27257;SDS011;62045;49.986;8.672;2023-02-11T12:01:40;6.50;;;3.60;;
27257;SDS011;62045;49.986;8.672;2023-02-11T12:06:54;5.65;;;3.70;;
27257;SDS011;62045;49.986;8.672;2023-02-11T12:12:07;5.22;;;3.50;;
27257;SDS011;62045;49.986;8.672;2023-02-11T12:17:34;5.72;;;3.30;;
27257;SDS011;62045;49.986;8.672;2023-02-11T12:22:50;6.97;;;4.18;;
27257;SDS011;62045;49.986;8.672;2023-02-11T12:28:12;5.88;;;3.42;;
27257;SDS011;62045;49.986;8.672;2023-02-11T12:33:28;5.32;;;3.58;;
27257;SDS011;62045;49.986;8.672;2023-02-11T12:38:45;5.60;;;3.20;;
27257;SDS011;62045;49.986;8.672;2023-02-11T12:44:00;4.65;;;3.25;;
27257;SDS011;62045;49.986;8.672;2023-02-11T12:49:11;5.55;;;3.15;;
27257;SDS011;62045;49.986;8.672;2023-02-11T12:54:31;5.57;;;3.50;;
27257;SDS011;62045;49.986;8.672;2023-02-11T12:59:43;4.90;;;3.20;;
27257;SDS011;62045;49.986;8.672;2023-02-11T13:04:49;5.32;;;3.15;;
27257;SDS011;62045;49.986;8.672;2023-02-11T13:09:53;6.90;;;3.42;;
27257;SDS011;62045;49.986;8.672;2023-02-11T13:15:01;5.47;;;3.30;;
27257;SDS011;62045;49.986;8.672;2023-02-11T13:20:11;5.43;;;3.13;;
27257;SDS011;62045;49.986;8.672;2023-02-11T13:30:26;6.40;;;3.10;;
27257;SDS011;62045;49.986;8.672;2023-02-11T13:35:29;5.35;;;3.10;;
27257;SDS011;62045;49.986;8.672;2023-02-11T13:40:32;7.33;;;3.30;;
27257;SDS011;62045;49.986;8.672;2023-02-11T13:45:37;5.03;;;3.15;;
27257;SDS011;62045;49.986;8.672;2023-02-11T13:50:45;4.68;;;2.67;;
27257;SDS011;62045;49.986;8.672;2023-02-11T13:55:48;5.70;;;3.10;;
27257;SDS011;62045;49.986;8.672;2023-02-11T14:00:51;4.72;;;3.22;;
27257;SDS011;62045;49.986;8.672;2023-02-11T14:22:30;5.47;;;3.28;;
27257;SDS011;62045;49.986;8.672;2023-02-11T14:27:43;4.70;;;2.97;;
27257;SDS011;62045;49.986;8.672;2023-02-11T14:32:57;3.95;;;2.80;;
27257;SDS011;62045;49.986;8.672;2023-02-11T14:38:12;4.20;;;2.58;;
27257;SDS011;62045;49.986;8.672;2023-02-11T14:43:22;5.35;;;3.00;;
27257;SDS011;62045;49.986;8.672;2023-02-11T14:48:27;5.03;;;2.78;;
27257;SDS011;62045;49.986;8.672;2023-02-11T14:53:30;4.78;;;2.72;;
27257;SDS011;62045;49.986;8.672;2023-02-11T14:58:33;4.30;;;2.75;;
27257;SDS011;62045;49.986;8.672;2023-02-11T15:03:35;4.70;;;2.72;;
27257;SDS011;62045;49.986;8.672;2023-02-11T15:08:46;4.90;;;2.80;;
27257;SDS011;62045;49.986;8.672;2023-02-11T15:13:50;7.05;;;3.00;;
27257;SDS011;62045;49.986;8.672;2023-02-11T15:18:53;4.28;;;2.70;;
27257;SDS011;62045;49.986;8.672;2023-02-11T15:23:56;5.32;;;2.47;;
27257;SDS011;62045;49.986;8.672;2023-02-11T15:28:58;4.13;;;2.57;;
27257;SDS011;62045;49.986;8.672;2023-02-11T15:34:06;4.75;;;3.13;;
27257;SDS011;62045;49.986;8.672;2023-02-11T15:39:17;3.88;;;2.40;;
27257;SDS011;62045;49.986;8.672;2023-02-11T15:44:28;3.95;;;1.92;;
27257;SDS011;62045;49.986;8.672;2023-02-11T15:49:31;4.32;;;2.28;;
27257;SDS011;62045;49.986;8.672;2023-02-11T15:54:32;4.28;;;2.30;;
27257;SDS011;62045;49.986;8.672;2023-02-11T15:59:34;3.85;;;2.13;;
27257;SDS011;62045;49.986;8.672;2023-02-11T16:04:46;3.83;;;2.03;;
27257;SDS011;62045;49.986;8.672;2023-02-11T16:09:55;4.05;;;2.63;;
27257;SDS011;62045;49.986;8.672;2023-02-11T16:14:57;7.28;;;2.13;;
27257;SDS011;62045;49.986;8.672;2023-02-11T16:19:59;3.95;;;2.17;;
27257;SDS011;62045;49.986;8.672;2023-02-11T16:24:59;5.55;;;2.42;;
27257;SDS011;62045;49.986;8.672;2023-02-11T16:30:01;3.90;;;2.28;;
27257;SDS011;62045;49.986;8.672;2023-02-11T16:35:03;4.50;;;2.47;;
27257;SDS011;62045;49.986;8.672;2023-02-11T16:40:10;4.75;;;2.40;;
27257;SDS011;62045;49.986;8.672;2023-02-11T16:45:12;5.75;;;2.70;;
27257;SDS011;62045;49.986;8.672;2023-02-11T16:50:19;4.88;;;2.30;;
27257;SDS011;62045;49.986;8.672;2023-02-11T16:55:22;5.15;;;2.30;;
27257;SDS011;62045;49.986;8.672;2023-02-11T17:00:23;5.05;;;2.65;;
27257;SDS011;62045;49.986;8.672;2023-02-11T17:05:25;6.60;;;2.42;;
27257;SDS011;62045;49.986;8.672;2023-02-11T17:10:26;4.65;;;2.58;;
27257;SDS011;62045;49.986;8.672;2023-02-11T17:15:27;5.30;;;2.25;;
27257;SDS011;62045;49.986;8.672;2023-02-11T17:20:29;5.13;;;2.67;;
27257;SDS011;62045;49.986;8.672;2023-02-11T17:25:29;5.90;;;2.72;;
27257;SDS011;62045;49.986;8.672;2023-02-11T17:30:30;4.93;;;2.50;;
27257;SDS011;62045;49.986;8.672;2023-02-11T17:35:32;3.95;;;2.33;;
27257;SDS011;62045;49.986;8.672;2023-02-11T17:40:33;5.60;;;2.53;;
27257;SDS011;62045;49.986;8.672;2023-02-11T17:45:34;3.95;;;2.33;;
27257;SDS011;62045;49.986;8.672;2023-02-11T17:50:40;4.05;;;2.35;;
27257;SDS011;62045;49.986;8.672;2023-02-11T17:55:41;5.57;;;2.65;;
27257;SDS011;62045;49.986;8.672;2023-02-11T18:00:42;5.63;;;2.90;;
27257;SDS011;62045;49.986;8.672;2023-02-11T18:05:44;4.80;;;2.47;;
27257;SDS011;62045;49.986;8.672;2023-02-11T18:10:44;4.78;;;2.67;;
27257;SDS011;62045;49.986;8.672;2023-02-11T18:15:45;5.03;;;2.38;;
27257;SDS011;62045;49.986;8.672;2023-02-11T18:20:55;5.28;;;2.63;;
27257;SDS011;62045;49.986;8.672;2023-02-11T18:25:56;4.68;;;2.63;;
27257;SDS011;62045;49.986;8.672;2023-02-11T18:30:58;6.00;;;2.85;;
27257;SDS011;62045;49.986;8.672;2023-02-11T18:36:04;6.30;;;2.72;;
27257;SDS011;62045;49.986;8.672;2023-02-11T18:41:05;4.90;;;2.80;;
27257;SDS011;62045;49.986;8.672;2023-02-11T18:46:07;4.60;;;2.22;;
27257;SDS011;62045;49.986;8.672;2023-02-11T18:51:11;5.43;;;2.47;;
27257;SDS011;62045;49.986;8.672;2023-02-11T18:56:15;5.18;;;2.53;;
27257;SDS011;62045;49.986;8.672;2023-02-11T19:01:18;4.60;;;2.33;;
27257;SDS011;62045;49.986;8.672;2023-02-11T19:06:22;4.73;;;2.33;;
27257;SDS011;62045;49.986;8.672;2023-02-11T19:11:25;4.50;;;2.65;;
27257;SDS011;62045;49.986;8.672;2023-02-11T19:16:25;3.90;;;2.30;;
27257;SDS011;62045;49.986;8.672;2023-02-11T19:21:28;4.60;;;2.47;;
27257;SDS011;62045;49.986;8.672;2023-02-11T19:26:29;4.03;;;2.45;;
27257;SDS011;62045;49.986;8.672;2023-02-11T19:31:30;4.45;;;2.28;;
27257;SDS011;62045;49.986;8.672;2023-02-11T19:36:32;6.82;;;2.33;;
27257;SDS011;62045;49.986;8.672;2023-02-11T19:41:33;6.03;;;2.30;;
27257;SDS011;62045;49.986;8.672;2023-02-11T19:46:35;4.18;;;1.92;;
27257;SDS011;62045;49.986;8.672;2023-02-11T19:51:38;4.18;;;2.55;;
27257;SDS011;62045;49.986;8.672;2023-02-11T19:56:39;4.57;;;2.55;;
27257;SDS011;62045;49.986;8.672;2023-02-11T20:01:40;4.57;;;2.30;;
27257;SDS011;62045;49.986;8.672;2023-02-11T20:06:43;3.80;;;2.15;;
27257;SDS011;62045;49.986;8.672;2023-02-11T20:11:45;4.03;;;2.13;;
27257;SDS011;62045;49.986;8.672;2023-02-11T20:16:45;4.57;;;2.40;;
27257;SDS011;62045;49.986;8.672;2023-02-11T20:21:49;5.50;;;2.92;;
27257;SDS011;62045;49.986;8.672;2023-02-11T20:26:51;4.22;;;2.10;;
27257;SDS011;62045;49.986;8.672;2023-02-11T20:31:53;3.50;;;2.00;;
27257;SDS011;62045;49.986;8.672;2023-02-11T20:36:55;4.70;;;2.38;;
27257;SDS011;62045;49.986;8.672;2023-02-11T20:41:56;5.03;;;1.92;;
27257;SDS011;62045;49.986;8.672;2023-02-11T20:46:56;4.28;;;2.42;;
27257;SDS011;62045;49.986;8.672;2023-02-11T20:51:58;4.28;;;2.15;;
27257;SDS011;62045;49.986;8.672;2023-02-11T20:56:59;3.67;;;1.98;;
27257;SDS011;62045;49.986;8.672;2023-02-11T21:02:00;3.30;;;1.65;;
27257;SDS011;62045;49.986;8.672;2023-02-11T21:07:02;3.40;;;2.28;;
27257;SDS011;62045;49.986;8.672;2023-02-11T21:12:03;4.18;;;1.88;;
27257;SDS011;62045;49.986;8.672;2023-02-11T21:17:04;2.70;;;1.60;;
27257;SDS011;62045;49.986;8.672;2023-02-11T21:22:06;4.13;;;2.03;;
27257;SDS011;62045;49.986;8.672;2023-02-11T21:27:07;3.35;;;1.80;;
27257;SDS011;62045;49.986;8.672;2023-02-11T21:32:08;3.65;;;1.80;;
27257;SDS011;62045;49.986;8.672;2023-02-11T21:37:10;3.47;;;2.15;;
27257;SDS011;62045;49.986;8.672;2023-02-11T21:42:11;4.60;;;2.38;;
27257;SDS011;62045;49.986;8.672;2023-02-11T21:47:11;3.58;;;2.17;;
27257;SDS011;62045;49.986;8.672;2023-02-11T21:52:14;3.70;;;1.95;;
27257;SDS011;62045;49.986;8.672;2023-02-11T21:57:15;3.05;;;1.92;;
27257;SDS011;62045;49.986;8.672;2023-02-11T22:02:16;3.72;;;2.10;;
27257;SDS011;62045;49.986;8.672;2023-02-11T22:07:18;4.47;;;1.92;;
27257;SDS011;62045;49.986;8.672;2023-02-11T22:12:19;4.47;;;2.42;;
27257;SDS011;62045;49.986;8.672;2023-02-11T22:17:20;3.90;;;1.90;;
27257;SDS011;62045;49.986;8.672;2023-02-11T22:22:22;3.13;;;1.83;;
27257;SDS011;62045;49.986;8.672;2023-02-11T22:27:23;3.55;;;1.90;;
27257;SDS011;62045;49.986;8.672;2023-02-11T22:32:23;3.85;;;2.05;;
27257;SDS011;62045;49.986;8.672;2023-02-11T22:37:25;3.50;;;1.92;;
27257;SDS011;62045;49.986;8.672;2023-02-11T22:42:26;3.10;;;1.60;;
27257;SDS011;62045;49.986;8.672;2023-02-11T22:47:27;4.25;;;2.25;;
27257;SDS011;62045;49.986;8.672;2023-02-11T22:52:29;3.20;;;1.95;;
27257;SDS011;62045;49.986;8.672;2023-02-11T22:57:29;4.45;;;1.98;;
27257;SDS011;62045;49.986;8.672;2023-02-11T23:02:30;3.08;;;1.75;;
27257;SDS011;62045;49.986;8.672;2023-02-11T23:07:33;2.97;;;1.77;;
27257;SDS011;62045;49.986;8.672;2023-02-11T23:12:33;3.25;;;1.70;;
27257;SDS011;62045;49.986;8.672;2023-02-11T23:17:34;3.28;;;1.88;;
27257;SDS011;62045;49.986;8.672;2023-02-11T23:22:36;3.28;;;1.80;;
27257;SDS011;62045;49.986;8.672;2023-02-11T23:27:37;3.72;;;2.15;;
27257;SDS011;62045;49.986;8.672;2023-02-11T23:32:38;2.63;;;1.63;;
27257;SDS011;62045;49.986;8.672;2023-02-11T23:37:40;3.53;;;1.80;;
27257;SDS011;62045;49.986;8.672;2023-02-11T23:42:40;3.17;;;1.70;;
27257;SDS011;62045;49.986;8.672;2023-02-11T23:47:41;3.30;;;1.80;;
27257;SDS011;62045;49.986;8.672;2023-02-11T23:52:43;3.28;;;1.92;;
27257;SDS011;62045;49.986;8.672;2023-02-11T23:57:44;4.15;;;2.17;;
